OVO7777 ZSSS-ZSSS
Flight info
| Callsign | OVO7777 |
|---|---|
| Flight time | 1h 23m |
| Altitude | 20600 |
| Route | SHA CGT JTN |
| Aircraft | A20N/M-SDE2E3FGHIJ1RWXY/LB1 |
Departure
| Time | 2026-04-30 11:40 |
|---|---|
| Airport | Shanghai Hongqiao International Airport (ZSSS) |
Arrival
| Time | 2026-04-30 13:03 |
|---|---|
| Airport | Shanghai Hongqiao International Airport (ZSSS) |
| Time | Latitude | Longitude | Altitude | Speed | Heading |
|---|---|---|---|---|---|
| 2026-04-30 11:30 | 31.18363 | 121.32889 | 9 ft | 0 kts | 266° |
| 2026-04-30 11:33 | 31.18363 | 121.32891 | 9 ft | 2 kts | 266° |
| 2026-04-30 11:33 | 31.18364 | 121.32910 | 9 ft | 2 kts | 266° |
| 2026-04-30 11:34 | 31.18365 | 121.32929 | 10 ft | 2 kts | 266° |
| 2026-04-30 11:34 | 31.18366 | 121.32948 | 10 ft | 2 kts | 266° |
| 2026-04-30 11:34 | 31.18367 | 121.32967 | 12 ft | 2 kts | 266° |
| 2026-04-30 11:34 | 31.18368 | 121.32986 | 12 ft | 2 kts | 250° |
| 2026-04-30 11:35 | 31.18378 | 121.33001 | 12 ft | 2 kts | 205° |
| 2026-04-30 11:35 | 31.18388 | 121.33005 | 13 ft | 0 kts | 174° |
| 2026-04-30 11:36 | 31.18386 | 121.33005 | 12 ft | 1 kts | 174° |
| 2026-04-30 11:36 | 31.18347 | 121.33023 | 9 ft | 11 kts | 135° |
| 2026-04-30 11:36 | 31.18336 | 121.33127 | 9 ft | 16 kts | 88° |
| 2026-04-30 11:36 | 31.18341 | 121.33221 | 9 ft | 0 kts | 87° |
| 2026-04-30 11:37 | 31.18342 | 121.33260 | 9 ft | 18 kts | 87° |
| 2026-04-30 11:37 | 31.18351 | 121.33475 | 9 ft | 6 kts | 87° |
| 2026-04-30 11:37 | 31.18354 | 121.33524 | 9 ft | 20 kts | 86° |
| 2026-04-30 11:38 | 31.18355 | 121.33582 | 9 ft | 6 kts | 88° |
| 2026-04-30 11:38 | 31.18356 | 121.33600 | 9 ft | 0 kts | 88° |
| 2026-04-30 11:39 | 31.18380 | 121.33688 | 8 ft | 18 kts | 43° |
| 2026-04-30 11:39 | 31.18429 | 121.33702 | 8 ft | 9 kts | 1° |
| 2026-04-30 11:39 | 31.18710 | 121.33686 | 7 ft | 95 kts | 355° |
| 2026-04-30 11:40 | 31.19661 | 121.33633 | 319 ft | 157 kts | 355° |
| 2026-04-30 11:40 | 31.20790 | 121.33539 | 1424 ft | 171 kts | 354° |
| 2026-04-30 11:40 | 31.22115 | 121.33456 | 2418 ft | 199 kts | 356° |
| 2026-04-30 11:40 | 31.23587 | 121.33335 | 3592 ft | 230 kts | 346° |
| 2026-04-30 11:41 | 31.25143 | 121.32439 | 4277 ft | 275 kts | 320° |
| 2026-04-30 11:41 | 31.26429 | 121.30535 | 4633 ft | 324 kts | 297° |
| 2026-04-30 11:41 | 31.27079 | 121.27835 | 4882 ft | 369 kts | 275° |
| 2026-04-30 11:41 | 31.26803 | 121.24912 | 5616 ft | 354 kts | 256° |
| 2026-04-30 11:42 | 31.25778 | 121.22404 | 5543 ft | 335 kts | 236° |
| 2026-04-30 11:42 | 31.24167 | 121.20630 | 5293 ft | 313 kts | 217° |
| 2026-04-30 11:42 | 31.22282 | 121.19575 | 5061 ft | 291 kts | 198° |
| 2026-04-30 11:42 | 31.20333 | 121.19340 | 4940 ft | 269 kts | 177° |
| 2026-04-30 11:43 | 31.18519 | 121.19497 | 4923 ft | 253 kts | 176° |
| 2026-04-30 11:43 | 31.16839 | 121.19647 | 4922 ft | 238 kts | 176° |
| 2026-04-30 11:43 | 31.15216 | 121.19781 | 4923 ft | 225 kts | 177° |
| 2026-04-30 11:43 | 31.13616 | 121.19895 | 4924 ft | 232 kts | 178° |
| 2026-04-30 11:44 | 31.12018 | 121.20009 | 4925 ft | 230 kts | 178° |
| 2026-04-30 11:44 | 31.10418 | 121.20122 | 4923 ft | 230 kts | 178° |
| 2026-04-30 11:44 | 31.08821 | 121.20235 | 4923 ft | 230 kts | 178° |
| 2026-04-30 11:44 | 31.07248 | 121.20345 | 4923 ft | 230 kts | 178° |
| 2026-04-30 11:45 | 31.05658 | 121.20457 | 4824 ft | 228 kts | 178° |
| 2026-04-30 11:45 | 31.04094 | 121.20726 | 4563 ft | 228 kts | 158° |
| 2026-04-30 11:45 | 31.02839 | 121.21842 | 4306 ft | 225 kts | 123° |
| 2026-04-30 11:45 | 31.02326 | 121.23494 | 4045 ft | 220 kts | 90° |
| 2026-04-30 11:46 | 31.02391 | 121.25264 | 3823 ft | 218 kts | 84° |
| 2026-04-30 11:46 | 31.02485 | 121.27023 | 3583 ft | 216 kts | 84° |
| 2026-04-30 11:46 | 31.02598 | 121.28771 | 3329 ft | 216 kts | 78° |
| 2026-04-30 11:46 | 31.02994 | 121.30446 | 3076 ft | 214 kts | 70° |
| 2026-04-30 11:47 | 31.03500 | 121.32075 | 2833 ft | 214 kts | 68° |
| 2026-04-30 11:47 | 31.04078 | 121.33662 | 2620 ft | 210 kts | 56° |
| 2026-04-30 11:47 | 31.05078 | 121.34884 | 2346 ft | 209 kts | 33° |
| 2026-04-30 11:47 | 31.06437 | 121.35387 | 2096 ft | 205 kts | 359° |
| 2026-04-30 11:48 | 31.07865 | 121.35286 | 2034 ft | 210 kts | 353° |
| 2026-04-30 11:48 | 31.09303 | 121.35121 | 2011 ft | 207 kts | 352° |
| 2026-04-30 11:48 | 31.10714 | 121.34862 | 1911 ft | 195 kts | 349° |
| 2026-04-30 11:48 | 31.11930 | 121.34650 | 1683 ft | 162 kts | 351° |
| 2026-04-30 11:49 | 31.12963 | 121.34488 | 1443 ft | 140 kts | 351° |
| 2026-04-30 11:49 | 31.13895 | 121.34349 | 1168 ft | 130 kts | 351° |
| 2026-04-30 11:49 | 31.14771 | 121.34214 | 934 ft | 124 kts | 351° |
| 2026-04-30 11:49 | 31.15622 | 121.34078 | 720 ft | 126 kts | 350° |
| 2026-04-30 11:50 | 31.16477 | 121.33932 | 496 ft | 124 kts | 350° |
| 2026-04-30 11:50 | 31.17334 | 121.33807 | 267 ft | 123 kts | 352° |
| 2026-04-30 11:50 | 31.18190 | 121.33726 | 56 ft | 123 kts | 355° |
| 2026-04-30 11:50 | 31.19010 | 121.33679 | 27 ft | 117 kts | 356° |
| 2026-04-30 11:51 | 31.19988 | 121.33662 | 468 ft | 157 kts | 356° |
| 2026-04-30 11:51 | 31.21190 | 121.33606 | 1085 ft | 186 kts | 357° |
| 2026-04-30 11:51 | 31.22565 | 121.33547 | 1725 ft | 207 kts | 355° |
| 2026-04-30 11:51 | 31.23956 | 121.33135 | 2005 ft | 208 kts | 328° |
| 2026-04-30 11:52 | 31.24912 | 121.31895 | 2470 ft | 210 kts | 290° |
| 2026-04-30 11:52 | 31.25005 | 121.30221 | 3545 ft | 210 kts | 256° |
| 2026-04-30 11:52 | 31.24427 | 121.28648 | 4280 ft | 214 kts | 244° |
| 2026-04-30 11:52 | 31.23741 | 121.27091 | 4662 ft | 216 kts | 244° |
| 2026-04-30 11:53 | 31.23049 | 121.25549 | 4849 ft | 218 kts | 244° |
| 2026-04-30 11:53 | 31.22342 | 121.23980 | 4924 ft | 219 kts | 244° |
| 2026-04-30 11:53 | 31.21632 | 121.22413 | 4926 ft | 218 kts | 244° |
| 2026-04-30 11:53 | 31.20921 | 121.20847 | 4925 ft | 218 kts | 244° |
| 2026-04-30 11:54 | 31.20073 | 121.19381 | 4926 ft | 221 kts | 223° |
| 2026-04-30 11:54 | 31.18683 | 121.18609 | 4925 ft | 227 kts | 189° |
| 2026-04-30 11:54 | 31.17101 | 121.18634 | 4923 ft | 228 kts | 177° |
| 2026-04-30 11:54 | 31.16328 | 121.18706 | 3754 ft | 75 kts | 176° |
| 2026-04-30 11:55 | 31.14997 | 121.18791 | 2488 ft | 202 kts | 170° |
| 2026-04-30 11:55 | 31.13397 | 121.19005 | 2934 ft | 249 kts | 173° |
| 2026-04-30 11:55 | 31.11878 | 121.19196 | 3593 ft | 213 kts | 173° |
| 2026-04-30 11:55 | 31.10233 | 121.19579 | 3814 ft | 262 kts | 167° |
| 2026-04-30 11:56 | 31.08310 | 121.19833 | 3983 ft | 277 kts | 181° |
| 2026-04-30 11:56 | 31.06457 | 121.19810 | 4026 ft | 257 kts | 179° |
| 2026-04-30 11:56 | 31.04732 | 121.19916 | 4013 ft | 241 kts | 180° |
| 2026-04-30 11:56 | 31.03130 | 121.20254 | 3959 ft | 229 kts | 159° |
| 2026-04-30 11:57 | 31.01918 | 121.21333 | 3850 ft | 218 kts | 118° |
| 2026-04-30 11:57 | 31.01770 | 121.22990 | 3549 ft | 211 kts | 64° |
| 2026-04-30 11:57 | 31.02129 | 121.24599 | 3392 ft | 212 kts | 83° |
| 2026-04-30 11:57 | 31.02272 | 121.26372 | 3386 ft | 230 kts | 82° |
| 2026-04-30 11:58 | 31.02482 | 121.28289 | 3397 ft | 245 kts | 82° |
| 2026-04-30 11:58 | 31.02683 | 121.30236 | 3342 ft | 237 kts | 80° |
| 2026-04-30 11:58 | 31.03070 | 121.32058 | 3197 ft | 227 kts | 67° |
| 2026-04-30 11:58 | 31.03774 | 121.33665 | 3051 ft | 219 kts | 56° |
| 2026-04-30 11:59 | 31.04670 | 121.35084 | 2799 ft | 217 kts | 45° |
| 2026-04-30 11:59 | 31.05895 | 121.35987 | 2670 ft | 202 kts | 6° |
| 2026-04-30 11:59 | 31.07263 | 121.35783 | 2315 ft | 204 kts | 343° |
| 2026-04-30 11:59 | 31.08638 | 121.35282 | 1998 ft | 206 kts | 342° |
| 2026-04-30 12:00 | 31.10024 | 121.34906 | 1742 ft | 204 kts | 348° |
| 2026-04-30 12:00 | 31.11383 | 121.34653 | 1450 ft | 191 kts | 350° |
| 2026-04-30 12:00 | 31.12641 | 121.34445 | 1253 ft | 171 kts | 350° |
| 2026-04-30 12:00 | 31.13716 | 121.34289 | 1088 ft | 142 kts | 346° |
| 2026-04-30 12:01 | 31.14653 | 121.34135 | 832 ft | 132 kts | 350° |
| 2026-04-30 12:01 | 31.15538 | 121.34013 | 605 ft | 125 kts | 352° |
| 2026-04-30 12:01 | 31.16399 | 121.33913 | 427 ft | 126 kts | 353° |
| 2026-04-30 12:01 | 31.17263 | 121.33824 | 261 ft | 124 kts | 354° |
| 2026-04-30 12:02 | 31.18120 | 121.33746 | 88 ft | 123 kts | 354° |
| 2026-04-30 12:02 | 31.18948 | 121.33680 | 10 ft | 113 kts | 360° |
| 2026-04-30 12:02 | 31.19735 | 121.33630 | 93 ft | 138 kts | 356° |
| 2026-04-30 12:02 | 31.20760 | 121.33572 | 920 ft | 159 kts | 353° |
| 2026-04-30 12:03 | 31.21918 | 121.33447 | 1981 ft | 170 kts | 353° |
| 2026-04-30 12:03 | 31.23833 | 121.31944 | 4150 ft | 195 kts | 289° |
| 2026-04-30 12:03 | 31.23911 | 121.30299 | 4669 ft | 213 kts | 261° |
| 2026-04-30 12:04 | 31.23688 | 121.29148 | 4829 ft | 216 kts | 257° |
| 2026-04-30 12:04 | 31.23014 | 121.26942 | 4925 ft | 218 kts | 250° |
| 2026-04-30 12:04 | 31.22450 | 121.25299 | 4927 ft | 218 kts | 250° |
| 2026-04-30 12:04 | 31.21885 | 121.23655 | 4928 ft | 218 kts | 250° |
| 2026-04-30 12:05 | 31.21316 | 121.22005 | 4925 ft | 219 kts | 250° |
| 2026-04-30 12:05 | 31.20787 | 121.20350 | 4926 ft | 218 kts | 250° |
| 2026-04-30 12:05 | 31.19864 | 121.18945 | 4924 ft | 224 kts | 216° |
| 2026-04-30 12:05 | 31.18393 | 121.18357 | 4926 ft | 229 kts | 182° |
| 2026-04-30 12:06 | 31.16795 | 121.18442 | 4924 ft | 229 kts | 177° |
| 2026-04-30 12:06 | 31.15206 | 121.18559 | 4920 ft | 230 kts | 177° |
| 2026-04-30 12:06 | 31.14140 | 121.18637 | 4923 ft | 231 kts | 177° |
| 2026-04-30 12:06 | 31.11996 | 121.18794 | 4924 ft | 231 kts | 178° |
| 2026-04-30 12:07 | 31.10938 | 121.18871 | 4924 ft | 231 kts | 178° |
| 2026-04-30 12:07 | 31.09331 | 121.18987 | 4922 ft | 231 kts | 178° |
| 2026-04-30 12:07 | 31.07727 | 121.19102 | 4923 ft | 231 kts | 178° |
| 2026-04-30 12:07 | 31.06123 | 121.19216 | 4922 ft | 231 kts | 178° |
| 2026-04-30 12:08 | 31.04549 | 121.19467 | 4706 ft | 228 kts | 164° |
| 2026-04-30 12:08 | 31.03208 | 121.20407 | 4319 ft | 226 kts | 130° |
| 2026-04-30 12:08 | 31.02532 | 121.22007 | 3918 ft | 221 kts | 96° |
| 2026-04-30 12:08 | 31.02549 | 121.23774 | 3533 ft | 218 kts | 84° |
| 2026-04-30 12:09 | 31.02643 | 121.25525 | 3196 ft | 214 kts | 84° |
| 2026-04-30 12:09 | 31.02735 | 121.27255 | 2805 ft | 214 kts | 85° |
| 2026-04-30 12:09 | 31.02828 | 121.28985 | 2412 ft | 214 kts | 85° |
| 2026-04-30 12:09 | 31.03038 | 121.30691 | 2112 ft | 208 kts | 71° |
| 2026-04-30 12:10 | 31.03481 | 121.32247 | 2027 ft | 196 kts | 70° |
| 2026-04-30 12:10 | 31.03996 | 121.33680 | 2035 ft | 194 kts | 63° |
| 2026-04-30 12:10 | 31.04589 | 121.35083 | 2014 ft | 190 kts | 52° |
| 2026-04-30 12:10 | 31.05630 | 121.35962 | 2014 ft | 183 kts | 12° |
| 2026-04-30 12:11 | 31.06822 | 121.36002 | 1928 ft | 166 kts | 353° |
| 2026-04-30 12:11 | 31.07954 | 121.35789 | 1859 ft | 168 kts | 346° |
| 2026-04-30 12:11 | 31.09034 | 121.35493 | 1829 ft | 155 kts | 345° |
| 2026-04-30 12:11 | 31.10055 | 121.35208 | 1684 ft | 143 kts | 345° |
| 2026-04-30 12:12 | 31.10963 | 121.34956 | 1473 ft | 127 kts | 345° |
| 2026-04-30 12:12 | 31.11798 | 121.34723 | 1292 ft | 125 kts | 344° |
| 2026-04-30 12:12 | 31.12645 | 121.34486 | 1129 ft | 124 kts | 345° |
| 2026-04-30 12:12 | 31.13486 | 121.34255 | 958 ft | 124 kts | 346° |
| 2026-04-30 12:13 | 31.14336 | 121.34071 | 801 ft | 124 kts | 348° |
| 2026-04-30 12:13 | 31.15193 | 121.33928 | 641 ft | 125 kts | 351° |
| 2026-04-30 12:13 | 31.16058 | 121.33846 | 477 ft | 125 kts | 355° |
| 2026-04-30 12:13 | 31.16919 | 121.33794 | 310 ft | 124 kts | 355° |
| 2026-04-30 12:14 | 31.17777 | 121.33742 | 133 ft | 123 kts | 355° |
| 2026-04-30 12:14 | 31.18631 | 121.33698 | 9 ft | 118 kts | 355° |
| 2026-04-30 12:14 | 31.19551 | 121.33668 | 276 ft | 145 kts | 358° |
| 2026-04-30 12:14 | 31.20590 | 121.33659 | 992 ft | 159 kts | 357° |
| 2026-04-30 12:15 | 31.21790 | 121.33602 | 1672 ft | 187 kts | 356° |
| 2026-04-30 12:15 | 31.23169 | 121.33537 | 2391 ft | 211 kts | 356° |
| 2026-04-30 12:15 | 31.24654 | 121.33482 | 3501 ft | 211 kts | 356° |
| 2026-04-30 12:15 | 31.26091 | 121.33428 | 4257 ft | 205 kts | 355° |
| 2026-04-30 12:16 | 31.27418 | 121.32924 | 4654 ft | 203 kts | 323° |
| 2026-04-30 12:16 | 31.28254 | 121.31614 | 4855 ft | 206 kts | 289° |
| 2026-04-30 12:16 | 31.28390 | 121.29945 | 4923 ft | 210 kts | 262° |
| 2026-04-30 12:16 | 31.27743 | 121.28416 | 4932 ft | 215 kts | 233° |
| 2026-04-30 12:17 | 31.25850 | 121.25743 | 4927 ft | 215 kts | 233° |
| 2026-04-30 12:17 | 31.24897 | 121.24398 | 4925 ft | 215 kts | 233° |
| 2026-04-30 12:17 | 31.23941 | 121.23049 | 4927 ft | 215 kts | 233° |
| 2026-04-30 12:18 | 31.22975 | 121.21714 | 4929 ft | 216 kts | 230° |
| 2026-04-30 12:18 | 31.21943 | 121.20438 | 4926 ft | 216 kts | 229° |
| 2026-04-30 12:18 | 31.20705 | 121.19450 | 4927 ft | 220 kts | 199° |
| 2026-04-30 12:18 | 31.19178 | 121.19318 | 4926 ft | 223 kts | 181° |
| 2026-04-30 12:19 | 31.17682 | 121.18974 | 4923 ft | 219 kts | 210° |
| 2026-04-30 12:19 | 31.16603 | 121.17789 | 4925 ft | 213 kts | 243° |
| 2026-04-30 12:19 | 31.15798 | 121.16333 | 4923 ft | 216 kts | 225° |
| 2026-04-30 12:19 | 31.14456 | 121.15544 | 4925 ft | 223 kts | 191° |
| 2026-04-30 12:20 | 31.12905 | 121.15630 | 4916 ft | 226 kts | 163° |
| 2026-04-30 12:20 | 31.11627 | 121.16573 | 4920 ft | 212 kts | 127° |
| 2026-04-30 12:20 | 31.11091 | 121.18059 | 4917 ft | 191 kts | 88° |
| 2026-04-30 12:20 | 31.11396 | 121.19503 | 4928 ft | 186 kts | 54° |
| 2026-04-30 12:21 | 31.12300 | 121.20463 | 4930 ft | 174 kts | 17° |
| 2026-04-30 12:21 | 31.13475 | 121.20586 | 4930 ft | 171 kts | 349° |
| 2026-04-30 12:21 | 31.14649 | 121.20380 | 4925 ft | 171 kts | 349° |
| 2026-04-30 12:21 | 31.15828 | 121.20173 | 4927 ft | 173 kts | 350° |
| 2026-04-30 12:22 | 31.17015 | 121.19970 | 4927 ft | 172 kts | 350° |
| 2026-04-30 12:22 | 31.18198 | 121.19773 | 4925 ft | 172 kts | 350° |
| 2026-04-30 12:22 | 31.19383 | 121.19577 | 4925 ft | 172 kts | 350° |
| 2026-04-30 12:22 | 31.20568 | 121.19381 | 4925 ft | 172 kts | 350° |
| 2026-04-30 12:23 | 31.21744 | 121.19126 | 4916 ft | 171 kts | 335° |
| 2026-04-30 12:23 | 31.22593 | 121.18191 | 4925 ft | 173 kts | 295° |
| 2026-04-30 12:23 | 31.22673 | 121.16795 | 4923 ft | 180 kts | 253° |
| 2026-04-30 12:23 | 31.21918 | 121.15624 | 4925 ft | 187 kts | 217° |
| 2026-04-30 12:24 | 31.20733 | 121.14988 | 4924 ft | 190 kts | 197° |
| 2026-04-30 12:24 | 31.19429 | 121.14720 | 4924 ft | 191 kts | 187° |
| 2026-04-30 12:24 | 31.18104 | 121.14618 | 4923 ft | 191 kts | 183° |
| 2026-04-30 12:24 | 31.16770 | 121.14563 | 4923 ft | 191 kts | 183° |
| 2026-04-30 12:25 | 31.15460 | 121.14783 | 4925 ft | 194 kts | 152° |
| 2026-04-30 12:25 | 31.14515 | 121.15870 | 4926 ft | 193 kts | 111° |
| 2026-04-30 12:25 | 31.14368 | 121.17372 | 4925 ft | 186 kts | 70° |
| 2026-04-30 12:25 | 31.15050 | 121.18577 | 4927 ft | 178 kts | 31° |
| 2026-04-30 12:26 | 31.16173 | 121.19055 | 4929 ft | 173 kts | 359° |
| 2026-04-30 12:26 | 31.17377 | 121.19079 | 4925 ft | 173 kts | 359° |
| 2026-04-30 12:26 | 31.18581 | 121.19131 | 4925 ft | 173 kts | 0° |
| 2026-04-30 12:26 | 31.19785 | 121.19200 | 4925 ft | 173 kts | 0° |
| 2026-04-30 12:27 | 31.20989 | 121.19219 | 4923 ft | 172 kts | 355° |
| 2026-04-30 12:27 | 31.22181 | 121.19133 | 4902 ft | 171 kts | 354° |
| 2026-04-30 12:27 | 31.23365 | 121.19044 | 4682 ft | 171 kts | 354° |
| 2026-04-30 12:27 | 31.24564 | 121.18955 | 4398 ft | 175 kts | 354° |
| 2026-04-30 12:28 | 31.25773 | 121.18867 | 4215 ft | 172 kts | 354° |
| 2026-04-30 12:28 | 31.26964 | 121.18779 | 3987 ft | 172 kts | 354° |
| 2026-04-30 12:28 | 31.28164 | 121.18692 | 3747 ft | 173 kts | 355° |
| 2026-04-30 12:28 | 31.29362 | 121.18606 | 3532 ft | 173 kts | 354° |
| 2026-04-30 12:29 | 31.30562 | 121.18520 | 3306 ft | 173 kts | 354° |
| 2026-04-30 12:29 | 31.31752 | 121.18433 | 3070 ft | 174 kts | 355° |
| 2026-04-30 12:29 | 31.32975 | 121.18345 | 2857 ft | 174 kts | 354° |
| 2026-04-30 12:29 | 31.34182 | 121.18256 | 2640 ft | 174 kts | 355° |
| 2026-04-30 12:30 | 31.35340 | 121.18503 | 2401 ft | 176 kts | 31° |
| 2026-04-30 12:30 | 31.36119 | 121.19584 | 2147 ft | 179 kts | 72° |
| 2026-04-30 12:30 | 31.36362 | 121.21023 | 1950 ft | 178 kts | 81° |
| 2026-04-30 12:30 | 31.36562 | 121.22434 | 1803 ft | 175 kts | 81° |
| 2026-04-30 12:31 | 31.36773 | 121.23930 | 1801 ft | 198 kts | 81° |
| 2026-04-30 12:31 | 31.36992 | 121.25480 | 1796 ft | 190 kts | 81° |
| 2026-04-30 12:31 | 31.36961 | 121.27015 | 1806 ft | 191 kts | 103° |
| 2026-04-30 12:31 | 31.36413 | 121.28410 | 1802 ft | 190 kts | 122° |
| 2026-04-30 12:32 | 31.35739 | 121.29738 | 1802 ft | 190 kts | 122° |
| 2026-04-30 12:32 | 31.35023 | 121.31032 | 1795 ft | 189 kts | 136° |
| 2026-04-30 12:32 | 31.34037 | 121.32041 | 1800 ft | 189 kts | 143° |
| 2026-04-30 12:32 | 31.32957 | 121.32819 | 1798 ft | 176 kts | 163° |
| 2026-04-30 12:33 | 31.31766 | 121.33066 | 1798 ft | 171 kts | 179° |
| 2026-04-30 12:33 | 31.30641 | 121.33145 | 1801 ft | 151 kts | 179° |
| 2026-04-30 12:33 | 31.29650 | 121.33201 | 1682 ft | 140 kts | 181° |
| 2026-04-30 12:33 | 31.28686 | 121.33232 | 1480 ft | 135 kts | 180° |
| 2026-04-30 12:34 | 31.27774 | 121.33278 | 1296 ft | 127 kts | 180° |
| 2026-04-30 12:34 | 31.26908 | 121.33319 | 1090 ft | 123 kts | 180° |
| 2026-04-30 12:34 | 31.26053 | 121.33348 | 943 ft | 123 kts | 179° |
| 2026-04-30 12:34 | 31.25202 | 121.33380 | 781 ft | 122 kts | 180° |
| 2026-04-30 12:35 | 31.24356 | 121.33419 | 627 ft | 122 kts | 180° |
| 2026-04-30 12:35 | 31.23515 | 121.33459 | 464 ft | 121 kts | 180° |
| 2026-04-30 12:35 | 31.22674 | 121.33496 | 315 ft | 122 kts | 180° |
| 2026-04-30 12:35 | 31.21829 | 121.33531 | 152 ft | 121 kts | 180° |
| 2026-04-30 12:36 | 31.20989 | 121.33571 | 19 ft | 118 kts | 180° |
| 2026-04-30 12:36 | 31.20150 | 121.33585 | 156 ft | 139 kts | 179° |
| 2026-04-30 12:36 | 31.19130 | 121.33613 | 918 ft | 154 kts | 180° |
| 2026-04-30 12:36 | 31.18006 | 121.33685 | 1699 ft | 167 kts | 178° |
| 2026-04-30 12:37 | 31.16822 | 121.33813 | 2516 ft | 180 kts | 176° |
| 2026-04-30 12:37 | 31.15424 | 121.33938 | 2927 ft | 219 kts | 185° |
| 2026-04-30 12:37 | 31.13986 | 121.33415 | 3005 ft | 223 kts | 209° |
| 2026-04-30 12:37 | 31.12901 | 121.32245 | 3004 ft | 209 kts | 240° |
| 2026-04-30 12:38 | 31.12548 | 121.30639 | 3005 ft | 207 kts | 275° |
| 2026-04-30 12:38 | 31.13072 | 121.29102 | 3003 ft | 208 kts | 309° |
| 2026-04-30 12:38 | 31.14064 | 121.27875 | 3001 ft | 208 kts | 313° |
| 2026-04-30 12:38 | 31.15055 | 121.26668 | 3002 ft | 209 kts | 313° |
| 2026-04-30 12:39 | 31.16063 | 121.25440 | 3002 ft | 209 kts | 313° |
| 2026-04-30 12:39 | 31.17071 | 121.24209 | 3002 ft | 209 kts | 313° |
| 2026-04-30 12:39 | 31.18082 | 121.22975 | 3004 ft | 210 kts | 313° |
| 2026-04-30 12:39 | 31.19085 | 121.21750 | 3003 ft | 209 kts | 313° |
| 2026-04-30 12:40 | 31.20090 | 121.20521 | 3001 ft | 209 kts | 313° |
| 2026-04-30 12:40 | 31.21096 | 121.19297 | 3003 ft | 210 kts | 316° |
| 2026-04-30 12:40 | 31.22369 | 121.18505 | 3004 ft | 211 kts | 349° |
| 2026-04-30 12:40 | 31.23836 | 121.18370 | 3000 ft | 212 kts | 355° |
| 2026-04-30 12:41 | 31.25316 | 121.18269 | 2997 ft | 213 kts | 355° |
| 2026-04-30 12:41 | 31.26792 | 121.18167 | 3000 ft | 212 kts | 355° |
| 2026-04-30 12:41 | 31.28267 | 121.18066 | 2999 ft | 212 kts | 355° |
| 2026-04-30 12:41 | 31.29738 | 121.17966 | 2999 ft | 212 kts | 355° |
| 2026-04-30 12:42 | 31.31218 | 121.17863 | 3000 ft | 213 kts | 355° |
| 2026-04-30 12:42 | 31.32689 | 121.17762 | 3001 ft | 211 kts | 355° |
| 2026-04-30 12:42 | 31.34159 | 121.17660 | 3000 ft | 211 kts | 356° |
| 2026-04-30 12:42 | 31.35588 | 121.18007 | 3000 ft | 215 kts | 28° |
| 2026-04-30 12:43 | 31.36628 | 121.19227 | 2840 ft | 214 kts | 61° |
| 2026-04-30 12:43 | 31.37027 | 121.20896 | 2352 ft | 214 kts | 80° |
| 2026-04-30 12:43 | 31.37270 | 121.22608 | 1932 ft | 214 kts | 81° |
| 2026-04-30 12:43 | 31.37512 | 121.24321 | 1806 ft | 206 kts | 81° |
| 2026-04-30 12:44 | 31.37734 | 121.25891 | 1802 ft | 192 kts | 81° |
| 2026-04-30 12:44 | 31.37941 | 121.27441 | 1800 ft | 192 kts | 81° |
| 2026-04-30 12:44 | 31.38159 | 121.28980 | 1802 ft | 191 kts | 81° |
| 2026-04-30 12:44 | 31.38358 | 121.30516 | 1802 ft | 192 kts | 88° |
| 2026-04-30 12:45 | 31.38006 | 121.31976 | 1807 ft | 189 kts | 128° |
| 2026-04-30 12:45 | 31.36965 | 121.32835 | 1803 ft | 185 kts | 168° |
| 2026-04-30 12:45 | 31.35694 | 121.32904 | 1800 ft | 179 kts | 185° |
| 2026-04-30 12:45 | 31.34491 | 121.32840 | 1801 ft | 173 kts | 182° |
| 2026-04-30 12:46 | 31.33288 | 121.32893 | 1802 ft | 172 kts | 179° |
| 2026-04-30 12:46 | 31.32093 | 121.32974 | 1802 ft | 172 kts | 179° |
| 2026-04-30 12:46 | 31.30898 | 121.33057 | 1803 ft | 172 kts | 179° |
| 2026-04-30 12:46 | 31.29736 | 121.33134 | 1714 ft | 160 kts | 180° |
| 2026-04-30 12:47 | 31.28713 | 121.33172 | 1564 ft | 137 kts | 180° |
| 2026-04-30 12:47 | 31.27811 | 121.33220 | 1367 ft | 123 kts | 180° |
| 2026-04-30 12:47 | 31.26950 | 121.33263 | 1201 ft | 124 kts | 180° |
| 2026-04-30 12:47 | 31.26099 | 121.33305 | 1034 ft | 122 kts | 180° |
| 2026-04-30 12:48 | 31.25249 | 121.33348 | 868 ft | 122 kts | 180° |
| 2026-04-30 12:48 | 31.24404 | 121.33389 | 693 ft | 122 kts | 180° |
| 2026-04-30 12:48 | 31.23567 | 121.33434 | 529 ft | 121 kts | 180° |
| 2026-04-30 12:48 | 31.22729 | 121.33476 | 365 ft | 121 kts | 179° |
| 2026-04-30 12:49 | 31.21890 | 121.33519 | 201 ft | 121 kts | 179° |
| 2026-04-30 12:49 | 31.21049 | 121.33561 | 49 ft | 121 kts | 179° |
| 2026-04-30 12:49 | 31.20252 | 121.33602 | 16 ft | 107 kts | 177° |
| 2026-04-30 12:49 | 31.19359 | 121.33649 | 638 ft | 136 kts | 179° |
| 2026-04-30 12:50 | 31.18359 | 121.33730 | 1586 ft | 166 kts | 177° |
| 2026-04-30 12:50 | 31.17036 | 121.33871 | 2226 ft | 212 kts | 176° |
| 2026-04-30 12:50 | 31.15374 | 121.33879 | 2809 ft | 270 kts | 192° |
| 2026-04-30 12:50 | 31.13474 | 121.32931 | 2991 ft | 328 kts | 216° |
| 2026-04-30 12:51 | 31.11787 | 121.30920 | 3004 ft | 375 kts | 237° |
| 2026-04-30 12:51 | 31.10773 | 121.28269 | 2998 ft | 333 kts | 258° |
| 2026-04-30 12:51 | 31.10721 | 121.25794 | 3000 ft | 292 kts | 283° |
| 2026-04-30 12:51 | 31.11494 | 121.23783 | 2998 ft | 257 kts | 310° |
| 2026-04-30 12:52 | 31.12830 | 121.22617 | 3003 ft | 229 kts | 337° |
| 2026-04-30 12:52 | 31.13804 | 121.22186 | 3000 ft | 215 kts | 341° |
| 2026-04-30 12:52 | 31.15662 | 121.21478 | 3003 ft | 215 kts | 341° |
| 2026-04-30 12:52 | 31.16616 | 121.21132 | 3002 ft | 211 kts | 341° |
| 2026-04-30 12:53 | 31.18019 | 121.20621 | 3006 ft | 212 kts | 340° |
| 2026-04-30 12:53 | 31.19395 | 121.20052 | 3003 ft | 212 kts | 340° |
| 2026-04-30 12:53 | 31.20803 | 121.19476 | 3006 ft | 211 kts | 339° |
| 2026-04-30 12:53 | 31.22203 | 121.18972 | 3001 ft | 212 kts | 349° |
| 2026-04-30 12:54 | 31.23679 | 121.18857 | 2999 ft | 213 kts | 356° |
| 2026-04-30 12:54 | 31.25153 | 121.18793 | 3004 ft | 212 kts | 356° |
| 2026-04-30 12:54 | 31.26631 | 121.18727 | 3003 ft | 213 kts | 356° |
| 2026-04-30 12:54 | 31.28109 | 121.18668 | 3003 ft | 212 kts | 356° |
| 2026-04-30 12:55 | 31.29582 | 121.18612 | 3001 ft | 212 kts | 356° |
| 2026-04-30 12:55 | 31.31042 | 121.18551 | 3000 ft | 212 kts | 356° |
| 2026-04-30 12:55 | 31.32515 | 121.18497 | 3002 ft | 213 kts | 356° |
| 2026-04-30 12:55 | 31.33996 | 121.18435 | 3001 ft | 213 kts | 356° |
| 2026-04-30 12:56 | 31.35471 | 121.18504 | 3001 ft | 214 kts | 14° |
| 2026-04-30 12:56 | 31.36723 | 121.19415 | 2989 ft | 216 kts | 49° |
| 2026-04-30 12:56 | 31.37362 | 121.20980 | 2796 ft | 216 kts | 75° |
| 2026-04-30 12:56 | 31.37716 | 121.22700 | 2531 ft | 218 kts | 76° |
| 2026-04-30 12:57 | 31.38066 | 121.24432 | 2269 ft | 219 kts | 78° |
| 2026-04-30 12:57 | 31.38338 | 121.26191 | 2035 ft | 219 kts | 81° |
| 2026-04-30 12:57 | 31.38587 | 121.27941 | 1844 ft | 217 kts | 81° |
| 2026-04-30 12:57 | 31.38834 | 121.29680 | 1802 ft | 220 kts | 81° |
| 2026-04-30 12:58 | 31.38760 | 121.31428 | 1799 ft | 215 kts | 111° |
| 2026-04-30 12:58 | 31.37909 | 121.32761 | 1800 ft | 198 kts | 152° |
| 2026-04-30 12:58 | 31.36665 | 121.33150 | 1799 ft | 179 kts | 183° |
| 2026-04-30 12:58 | 31.35401 | 121.33020 | 1797 ft | 180 kts | 188° |
| 2026-04-30 12:59 | 31.34216 | 121.32891 | 1796 ft | 162 kts | 185° |
| 2026-04-30 12:59 | 31.33066 | 121.32928 | 1800 ft | 165 kts | 179° |
| 2026-04-30 12:59 | 31.31989 | 121.33006 | 1795 ft | 148 kts | 179° |
| 2026-04-30 12:59 | 31.31020 | 121.33043 | 1796 ft | 131 kts | 182° |
| 2026-04-30 13:00 | 31.30139 | 121.33060 | 1710 ft | 127 kts | 179° |
| 2026-04-30 13:00 | 31.29265 | 121.33132 | 1556 ft | 122 kts | 179° |
| 2026-04-30 13:00 | 31.28425 | 121.33181 | 1376 ft | 123 kts | 180° |
| 2026-04-30 13:00 | 31.27577 | 121.33223 | 1201 ft | 121 kts | 180° |
| 2026-04-30 13:01 | 31.26738 | 121.33264 | 1048 ft | 121 kts | 180° |
| 2026-04-30 13:01 | 31.25900 | 121.33303 | 898 ft | 121 kts | 179° |
| 2026-04-30 13:01 | 31.25060 | 121.33349 | 736 ft | 119 kts | 179° |
| 2026-04-30 13:01 | 31.24229 | 121.33395 | 590 ft | 119 kts | 180° |
| 2026-04-30 13:02 | 31.23401 | 121.33440 | 433 ft | 120 kts | 180° |
| 2026-04-30 13:02 | 31.22570 | 121.33483 | 298 ft | 120 kts | 179° |
| 2026-04-30 13:02 | 31.21735 | 121.33526 | 135 ft | 120 kts | 179° |
| 2026-04-30 13:02 | 31.20914 | 121.33566 | 18 ft | 114 kts | 181° |
| 2026-04-30 13:03 | 31.20217 | 121.33599 | 7 ft | 81 kts | 176° |
| 2026-04-30 13:03 | 31.19887 | 121.33643 | 10 ft | 0 kts | 132° |
| 2026-04-30 13:03 | 31.19879 | 121.33664 | 9 ft | 1 kts | 104° |
| 2026-04-30 13:03 | 31.19884 | 121.33775 | 9 ft | 11 kts | 88° |
| 2026-04-30 13:04 | 31.19885 | 121.33796 | 9 ft | 0 kts | 87° |
| 2026-04-30 13:04 | 31.19885 | 121.33799 | 9 ft | 0 kts | 87° |
| 2026-04-30 13:04 | 31.19878 | 121.33848 | 10 ft | 11 kts | 117° |
| 2026-04-30 13:04 | 31.19796 | 121.33879 | 9 ft | 16 kts | 175° |
| 2026-04-30 13:05 | 31.19678 | 121.33889 | 9 ft | 13 kts | 179° |
| 2026-04-30 13:05 | 31.19618 | 121.33930 | 9 ft | 9 kts | 109° |
| 2026-04-30 13:05 | 31.19563 | 121.33977 | 9 ft | 11 kts | 167° |
| 2026-04-30 13:06 | 31.19526 | 121.34079 | 9 ft | 0 kts | 89° |